sensor_id;sensor_type;location;lat;lon;timestamp;temperature;humidity
13409;DHT22;6775;49.574;11.170;2023-01-30T00:01:55;-2.50;99.90
13409;DHT22;6775;49.574;11.170;2023-01-30T00:04:23;-2.50;99.90
13409;DHT22;6775;49.574;11.170;2023-01-30T00:06:51;-2.40;99.90
13409;DHT22;6775;49.574;11.170;2023-01-30T00:09:19;-2.40;99.90
13409;DHT22;6775;49.574;11.170;2023-01-30T00:11:48;-2.30;99.90
13409;DHT22;6775;49.574;11.170;2023-01-30T00:14:16;-2.20;99.90
13409;DHT22;6775;49.574;11.170;2023-01-30T00:16:44;-2.30;99.90
13409;DHT22;6775;49.574;11.170;2023-01-30T00:19:11;-2.30;99.90
13409;DHT22;6775;49.574;11.170;2023-01-30T00:21:39;-2.30;99.90
13409;DHT22;6775;49.574;11.170;2023-01-30T00:24:07;-2.40;99.90
13409;DHT22;6775;49.574;11.170;2023-01-30T00:26:35;-2.40;99.90
13409;DHT22;6775;49.574;11.170;2023-01-30T00:29:05;-2.30;99.90
13409;DHT22;6775;49.574;11.170;2023-01-30T00:31:33;-2.30;99.90
13409;DHT22;6775;49.574;11.170;2023-01-30T00:34:01;-2.20;99.90
13409;DHT22;6775;49.574;11.170;2023-01-30T00:36:28;-2.20;99.90
13409;DHT22;6775;49.574;11.170;2023-01-30T00:38:56;-2.20;99.90
13409;DHT22;6775;49.574;11.170;2023-01-30T00:41:24;-2.10;99.90
13409;DHT22;6775;49.574;11.170;2023-01-30T00:44:14;-2.00;99.90
13409;DHT22;6775;49.574;11.170;2023-01-30T00:46:59;-1.90;99.90
13409;DHT22;6775;49.574;11.170;2023-01-30T00:49:34;-1.90;99.90
13409;DHT22;6775;49.574;11.170;2023-01-30T00:52:02;-1.70;99.90
13409;DHT22;6775;49.574;11.170;2023-01-30T00:54:30;-1.60;99.90
13409;DHT22;6775;49.574;11.170;2023-01-30T00:56:58;-1.60;99.90
13409;DHT22;6775;49.574;11.170;2023-01-30T00:59:28;-1.60;99.90
13409;DHT22;6775;49.574;11.170;2023-01-30T01:01:56;-1.60;99.90
13409;DHT22;6775;49.574;11.170;2023-01-30T01:04:23;-1.60;99.90
13409;DHT22;6775;49.574;11.170;2023-01-30T01:06:51;-1.50;99.90
13409;DHT22;6775;49.574;11.170;2023-01-30T01:09:19;-1.50;99.90
13409;DHT22;6775;49.574;11.170;2023-01-30T01:11:47;-1.40;99.90
13409;DHT22;6775;49.574;11.170;2023-01-30T01:14:15;-1.50;99.90
13409;DHT22;6775;49.574;11.170;2023-01-30T01:16:44;-1.40;99.90
13409;DHT22;6775;49.574;11.170;2023-01-30T01:19:12;-1.50;99.90
13409;DHT22;6775;49.574;11.170;2023-01-30T01:21:40;-1.50;99.90
13409;DHT22;6775;49.574;11.170;2023-01-30T01:24:11;-1.50;99.90
13409;DHT22;6775;49.574;11.170;2023-01-30T01:26:40;-1.50;99.90
13409;DHT22;6775;49.574;11.170;2023-01-30T01:29:11;-1.40;99.90
13409;DHT22;6775;49.574;11.170;2023-01-30T01:31:39;-1.40;99.90
13409;DHT22;6775;49.574;11.170;2023-01-30T01:34:08;-1.40;99.90
13409;DHT22;6775;49.574;11.170;2023-01-30T01:36:36;-1.40;99.90
13409;DHT22;6775;49.574;11.170;2023-01-30T01:39:21;-1.30;99.90
13409;DHT22;6775;49.574;11.170;2023-01-30T01:41:49;-1.20;99.90
13409;DHT22;6775;49.574;11.170;2023-01-30T01:44:16;-1.20;99.90
13409;DHT22;6775;49.574;11.170;2023-01-30T01:46:48;-1.10;99.90
13409;DHT22;6775;49.574;11.170;2023-01-30T01:49:21;-1.10;99.90
13409;DHT22;6775;49.574;11.170;2023-01-30T01:51:55;-1.00;99.90
13409;DHT22;6775;49.574;11.170;2023-01-30T01:54:28;-1.00;99.90
13409;DHT22;6775;49.574;11.170;2023-01-30T01:56:59;-0.90;99.90
13409;DHT22;6775;49.574;11.170;2023-01-30T01:59:31;-0.90;99.90
13409;DHT22;6775;49.574;11.170;2023-01-30T02:02:04;-0.90;99.90
13409;DHT22;6775;49.574;11.170;2023-01-30T02:04:34;-0.80;99.90
13409;DHT22;6775;49.574;11.170;2023-01-30T02:07:21;-0.80;99.90
13409;DHT22;6775;49.574;11.170;2023-01-30T02:09:49;-0.70;99.90
13409;DHT22;6775;49.574;11.170;2023-01-30T02:12:18;-0.70;99.90
13409;DHT22;6775;49.574;11.170;2023-01-30T02:14:47;-0.60;99.90
13409;DHT22;6775;49.574;11.170;2023-01-30T02:17:15;-0.60;99.90
13409;DHT22;6775;49.574;11.170;2023-01-30T02:19:48;-0.60;99.90
13409;DHT22;6775;49.574;11.170;2023-01-30T02:25:53;-0.50;99.90
13409;DHT22;6775;49.574;11.170;2023-01-30T02:28:45;-0.50;99.90
13409;DHT22;6775;49.574;11.170;2023-01-30T02:31:28;-0.50;99.90
13409;DHT22;6775;49.574;11.170;2023-01-30T02:34:14;-0.40;99.90
13409;DHT22;6775;49.574;11.170;2023-01-30T02:36:53;-0.40;99.90
13409;DHT22;6775;49.574;11.170;2023-01-30T02:39:31;-0.40;99.90
13409;DHT22;6775;49.574;11.170;2023-01-30T02:42:04;-0.30;99.90
13409;DHT22;6775;49.574;11.170;2023-01-30T02:44:41;-0.30;99.90
13409;DHT22;6775;49.574;11.170;2023-01-30T02:47:15;-0.20;99.90
13409;DHT22;6775;49.574;11.170;2023-01-30T02:49:47;-0.20;99.90
13409;DHT22;6775;49.574;11.170;2023-01-30T02:52:15;-0.20;99.90
13409;DHT22;6775;49.574;11.170;2023-01-30T02:54:44;-0.20;99.90
13409;DHT22;6775;49.574;11.170;2023-01-30T02:57:18;-0.10;99.90
13409;DHT22;6775;49.574;11.170;2023-01-30T02:59:48;-0.10;99.90
13409;DHT22;6775;49.574;11.170;2023-01-30T03:02:49;-0.10;99.90
13409;DHT22;6775;49.574;11.170;2023-01-30T03:05:56;-0.10;99.90
13409;DHT22;6775;49.574;11.170;2023-01-30T03:08:31;-0.10;99.90
13409;DHT22;6775;49.574;11.170;2023-01-30T03:11:03;0.00;99.90
13409;DHT22;6775;49.574;11.170;2023-01-30T03:13:41;0.00;99.90
13409;DHT22;6775;49.574;11.170;2023-01-30T03:16:14;0.00;99.90
13409;DHT22;6775;49.574;11.170;2023-01-30T03:18:44;0.00;99.90
13409;DHT22;6775;49.574;11.170;2023-01-30T03:21:12;0.00;99.90
13409;DHT22;6775;49.574;11.170;2023-01-30T03:23:40;0.00;99.90
13409;DHT22;6775;49.574;11.170;2023-01-30T03:26:13;0.00;99.90
13409;DHT22;6775;49.574;11.170;2023-01-30T03:28:44;0.00;99.90
13409;DHT22;6775;49.574;11.170;2023-01-30T03:31:13;0.00;99.90
13409;DHT22;6775;49.574;11.170;2023-01-30T03:33:41;0.00;99.90
13409;DHT22;6775;49.574;11.170;2023-01-30T03:36:11;0.10;99.90
13409;DHT22;6775;49.574;11.170;2023-01-30T03:38:39;0.10;99.90
13409;DHT22;6775;49.574;11.170;2023-01-30T03:41:07;0.10;99.90
13409;DHT22;6775;49.574;11.170;2023-01-30T03:43:35;0.20;99.90
13409;DHT22;6775;49.574;11.170;2023-01-30T03:46:03;0.20;99.90
13409;DHT22;6775;49.574;11.170;2023-01-30T03:48:31;0.20;99.90
13409;DHT22;6775;49.574;11.170;2023-01-30T03:50:59;0.20;99.90
13409;DHT22;6775;49.574;11.170;2023-01-30T03:53:28;0.20;99.90
13409;DHT22;6775;49.574;11.170;2023-01-30T03:55:56;0.30;99.90
13409;DHT22;6775;49.574;11.170;2023-01-30T03:58:24;0.20;99.90
13409;DHT22;6775;49.574;11.170;2023-01-30T04:00:51;0.30;99.90
13409;DHT22;6775;49.574;11.170;2023-01-30T04:03:22;0.30;99.90
13409;DHT22;6775;49.574;11.170;2023-01-30T04:05:49;0.30;99.90
13409;DHT22;6775;49.574;11.170;2023-01-30T04:08:17;0.30;99.90
13409;DHT22;6775;49.574;11.170;2023-01-30T04:10:46;0.30;99.90
13409;DHT22;6775;49.574;11.170;2023-01-30T04:13:14;0.40;99.90
13409;DHT22;6775;49.574;11.170;2023-01-30T04:15:42;0.40;99.90
13409;DHT22;6775;49.574;11.170;2023-01-30T04:18:10;0.40;99.90
13409;DHT22;6775;49.574;11.170;2023-01-30T04:20:38;0.40;99.90
13409;DHT22;6775;49.574;11.170;2023-01-30T04:23:05;0.40;99.90
13409;DHT22;6775;49.574;11.170;2023-01-30T04:25:33;0.40;99.90
13409;DHT22;6775;49.574;11.170;2023-01-30T04:28:03;0.40;99.90
13409;DHT22;6775;49.574;11.170;2023-01-30T04:30:31;0.50;99.90
13409;DHT22;6775;49.574;11.170;2023-01-30T04:32:59;0.50;99.90
13409;DHT22;6775;49.574;11.170;2023-01-30T04:35:26;0.50;99.90
13409;DHT22;6775;49.574;11.170;2023-01-30T04:37:55;0.50;99.90
13409;DHT22;6775;49.574;11.170;2023-01-30T04:40:22;0.40;99.90
13409;DHT22;6775;49.574;11.170;2023-01-30T04:42:50;0.50;99.90
13409;DHT22;6775;49.574;11.170;2023-01-30T04:45:19;0.50;99.90
13409;DHT22;6775;49.574;11.170;2023-01-30T04:47:47;0.50;99.90
13409;DHT22;6775;49.574;11.170;2023-01-30T04:50:15;0.50;99.90
13409;DHT22;6775;49.574;11.170;2023-01-30T04:52:43;0.50;99.90
13409;DHT22;6775;49.574;11.170;2023-01-30T04:55:11;0.60;99.90
13409;DHT22;6775;49.574;11.170;2023-01-30T04:57:39;0.60;99.90
13409;DHT22;6775;49.574;11.170;2023-01-30T05:00:08;0.60;99.90
13409;DHT22;6775;49.574;11.170;2023-01-30T05:02:37;0.70;99.90
13409;DHT22;6775;49.574;11.170;2023-01-30T05:05:06;0.70;99.90
13409;DHT22;6775;49.574;11.170;2023-01-30T05:07:33;0.70;99.90
13409;DHT22;6775;49.574;11.170;2023-01-30T05:10:01;0.70;99.90
13409;DHT22;6775;49.574;11.170;2023-01-30T05:12:29;0.70;99.90
13409;DHT22;6775;49.574;11.170;2023-01-30T05:14:57;0.70;99.90
13409;DHT22;6775;49.574;11.170;2023-01-30T05:17:25;0.60;99.90
13409;DHT22;6775;49.574;11.170;2023-01-30T05:19:54;0.60;99.90
13409;DHT22;6775;49.574;11.170;2023-01-30T05:22:22;0.60;99.90
13409;DHT22;6775;49.574;11.170;2023-01-30T05:24:49;0.60;99.90
13409;DHT22;6775;49.574;11.170;2023-01-30T05:27:17;0.70;99.90
13409;DHT22;6775;49.574;11.170;2023-01-30T05:29:45;0.70;99.90
13409;DHT22;6775;49.574;11.170;2023-01-30T05:32:14;0.80;99.90
13409;DHT22;6775;49.574;11.170;2023-01-30T05:34:42;0.70;99.90
13409;DHT22;6775;49.574;11.170;2023-01-30T05:37:11;0.70;99.90
13409;DHT22;6775;49.574;11.170;2023-01-30T05:39:39;0.70;99.90
13409;DHT22;6775;49.574;11.170;2023-01-30T05:42:07;0.70;99.90
13409;DHT22;6775;49.574;11.170;2023-01-30T05:44:35;0.70;99.90
13409;DHT22;6775;49.574;11.170;2023-01-30T05:47:03;0.70;99.90
13409;DHT22;6775;49.574;11.170;2023-01-30T05:49:31;0.70;99.90
13409;DHT22;6775;49.574;11.170;2023-01-30T05:51:58;0.70;99.90
13409;DHT22;6775;49.574;11.170;2023-01-30T05:54:28;0.70;99.90
13409;DHT22;6775;49.574;11.170;2023-01-30T05:56:55;0.70;99.90
13409;DHT22;6775;49.574;11.170;2023-01-30T05:59:23;0.70;99.90
13409;DHT22;6775;49.574;11.170;2023-01-30T06:01:51;0.70;99.90
13409;DHT22;6775;49.574;11.170;2023-01-30T06:04:19;0.60;99.90
13409;DHT22;6775;49.574;11.170;2023-01-30T06:06:48;0.70;99.90
13409;DHT22;6775;49.574;11.170;2023-01-30T06:09:16;0.60;99.90
13409;DHT22;6775;49.574;11.170;2023-01-30T06:11:45;0.60;99.90
13409;DHT22;6775;49.574;11.170;2023-01-30T06:14:13;0.60;99.90
13409;DHT22;6775;49.574;11.170;2023-01-30T06:16:41;0.60;99.90
13409;DHT22;6775;49.574;11.170;2023-01-30T06:19:09;0.70;99.90
13409;DHT22;6775;49.574;11.170;2023-01-30T06:21:37;0.70;99.90
13409;DHT22;6775;49.574;11.170;2023-01-30T06:24:05;0.60;99.90
13409;DHT22;6775;49.574;11.170;2023-01-30T06:26:33;0.60;99.90
13409;DHT22;6775;49.574;11.170;2023-01-30T06:29:02;0.40;99.90
13409;DHT22;6775;49.574;11.170;2023-01-30T06:31:30;0.60;99.90
13409;DHT22;6775;49.574;11.170;2023-01-30T06:33:58;0.60;99.90
13409;DHT22;6775;49.574;11.170;2023-01-30T06:36:26;0.60;99.90
13409;DHT22;6775;49.574;11.170;2023-01-30T06:38:53;0.60;99.90
13409;DHT22;6775;49.574;11.170;2023-01-30T06:41:21;0.60;99.90
13409;DHT22;6775;49.574;11.170;2023-01-30T06:43:49;0.60;99.90
13409;DHT22;6775;49.574;11.170;2023-01-30T06:46:18;0.60;99.90
13409;DHT22;6775;49.574;11.170;2023-01-30T06:48:46;0.70;99.90
13409;DHT22;6775;49.574;11.170;2023-01-30T06:51:14;0.70;99.90
13409;DHT22;6775;49.574;11.170;2023-01-30T06:53:42;0.70;99.90
13409;DHT22;6775;49.574;11.170;2023-01-30T06:56:10;0.70;99.90
13409;DHT22;6775;49.574;11.170;2023-01-30T06:58:38;0.70;99.90
13409;DHT22;6775;49.574;11.170;2023-01-30T07:01:05;0.70;99.90
13409;DHT22;6775;49.574;11.170;2023-01-30T07:03:34;0.70;99.90
13409;DHT22;6775;49.574;11.170;2023-01-30T07:06:02;0.70;99.90
13409;DHT22;6775;49.574;11.170;2023-01-30T07:08:30;0.80;99.90
13409;DHT22;6775;49.574;11.170;2023-01-30T07:10:58;0.80;99.90
13409;DHT22;6775;49.574;11.170;2023-01-30T07:13:26;0.80;99.90
13409;DHT22;6775;49.574;11.170;2023-01-30T07:15:54;0.90;99.90
13409;DHT22;6775;49.574;11.170;2023-01-30T07:18:22;0.90;99.90
13409;DHT22;6775;49.574;11.170;2023-01-30T07:20:51;0.90;99.90
13409;DHT22;6775;49.574;11.170;2023-01-30T07:23:19;1.00;99.90
13409;DHT22;6775;49.574;11.170;2023-01-30T07:25:47;1.00;99.90
13409;DHT22;6775;49.574;11.170;2023-01-30T07:28:14;1.00;99.90
13409;DHT22;6775;49.574;11.170;2023-01-30T07:30:42;1.10;99.90
13409;DHT22;6775;49.574;11.170;2023-01-30T07:33:10;1.10;99.90
13409;DHT22;6775;49.574;11.170;2023-01-30T07:35:38;1.10;99.90
13409;DHT22;6775;49.574;11.170;2023-01-30T07:38:07;1.10;99.90
13409;DHT22;6775;49.574;11.170;2023-01-30T07:40:35;1.10;99.90
13409;DHT22;6775;49.574;11.170;2023-01-30T07:43:04;1.10;99.90
13409;DHT22;6775;49.574;11.170;2023-01-30T07:45:35;1.10;99.90
13409;DHT22;6775;49.574;11.170;2023-01-30T07:48:05;1.20;99.90
13409;DHT22;6775;49.574;11.170;2023-01-30T07:50:33;1.20;99.90
13409;DHT22;6775;49.574;11.170;2023-01-30T07:53:02;1.30;99.90
13409;DHT22;6775;49.574;11.170;2023-01-30T07:55:31;1.30;99.90
13409;DHT22;6775;49.574;11.170;2023-01-30T07:57:59;1.30;99.90
13409;DHT22;6775;49.574;11.170;2023-01-30T08:00:27;1.40;99.90
13409;DHT22;6775;49.574;11.170;2023-01-30T08:02:55;1.40;99.90
13409;DHT22;6775;49.574;11.170;2023-01-30T08:05:23;1.40;99.90
13409;DHT22;6775;49.574;11.170;2023-01-30T08:07:51;1.40;99.90
13409;DHT22;6775;49.574;11.170;2023-01-30T08:10:19;1.40;99.90
13409;DHT22;6775;49.574;11.170;2023-01-30T08:12:50;1.40;99.90
13409;DHT22;6775;49.574;11.170;2023-01-30T08:15:18;1.40;99.90
13409;DHT22;6775;49.574;11.170;2023-01-30T08:17:57;1.30;99.90
13409;DHT22;6775;49.574;11.170;2023-01-30T08:20:26;1.40;99.90
13409;DHT22;6775;49.574;11.170;2023-01-30T08:22:54;1.30;99.90
13409;DHT22;6775;49.574;11.170;2023-01-30T08:25:22;1.30;99.90
13409;DHT22;6775;49.574;11.170;2023-01-30T08:27:52;1.30;99.90
13409;DHT22;6775;49.574;11.170;2023-01-30T08:30:20;1.40;99.90
13409;DHT22;6775;49.574;11.170;2023-01-30T08:32:49;1.40;99.90
13409;DHT22;6775;49.574;11.170;2023-01-30T08:35:17;1.40;99.90
13409;DHT22;6775;49.574;11.170;2023-01-30T08:37:44;1.40;99.90
13409;DHT22;6775;49.574;11.170;2023-01-30T08:40:13;1.40;99.90
13409;DHT22;6775;49.574;11.170;2023-01-30T08:42:42;1.40;99.90
13409;DHT22;6775;49.574;11.170;2023-01-30T08:45:12;1.50;99.90
13409;DHT22;6775;49.574;11.170;2023-01-30T08:47:40;1.50;99.90
13409;DHT22;6775;49.574;11.170;2023-01-30T08:50:09;1.50;99.90
13409;DHT22;6775;49.574;11.170;2023-01-30T08:52:37;1.50;99.90
13409;DHT22;6775;49.574;11.170;2023-01-30T08:55:05;1.50;99.90
13409;DHT22;6775;49.574;11.170;2023-01-30T08:57:33;1.50;99.90
13409;DHT22;6775;49.574;11.170;2023-01-30T09:00:02;1.50;99.90
13409;DHT22;6775;49.574;11.170;2023-01-30T09:02:31;1.50;99.90
13409;DHT22;6775;49.574;11.170;2023-01-30T09:04:59;1.50;99.90
13409;DHT22;6775;49.574;11.170;2023-01-30T09:07:27;1.50;99.90
13409;DHT22;6775;49.574;11.170;2023-01-30T09:09:58;1.50;99.90
13409;DHT22;6775;49.574;11.170;2023-01-30T09:12:26;1.50;99.90
13409;DHT22;6775;49.574;11.170;2023-01-30T09:14:54;1.50;99.90
13409;DHT22;6775;49.574;11.170;2023-01-30T09:17:24;1.40;99.90
13409;DHT22;6775;49.574;11.170;2023-01-30T09:19:53;1.40;99.90
13409;DHT22;6775;49.574;11.170;2023-01-30T09:22:20;1.50;99.90
13409;DHT22;6775;49.574;11.170;2023-01-30T09:24:48;1.50;99.90
13409;DHT22;6775;49.574;11.170;2023-01-30T09:27:16;1.40;99.90
13409;DHT22;6775;49.574;11.170;2023-01-30T09:29:44;1.40;99.90
13409;DHT22;6775;49.574;11.170;2023-01-30T09:32:12;1.40;99.90
13409;DHT22;6775;49.574;11.170;2023-01-30T09:34:40;1.40;99.90
13409;DHT22;6775;49.574;11.170;2023-01-30T09:37:09;1.40;99.90
13409;DHT22;6775;49.574;11.170;2023-01-30T09:39:37;1.40;99.90
13409;DHT22;6775;49.574;11.170;2023-01-30T09:42:29;1.40;99.90
13409;DHT22;6775;49.574;11.170;2023-01-30T09:45:22;1.40;99.90
13409;DHT22;6775;49.574;11.170;2023-01-30T09:48:00;1.40;99.90
13409;DHT22;6775;49.574;11.170;2023-01-30T09:50:44;1.40;99.90
13409;DHT22;6775;49.574;11.170;2023-01-30T09:53:21;1.40;99.90
13409;DHT22;6775;49.574;11.170;2023-01-30T09:55:51;1.40;99.90
13409;DHT22;6775;49.574;11.170;2023-01-30T09:58:21;1.40;99.90
13409;DHT22;6775;49.574;11.170;2023-01-30T10:00:53;1.50;99.90
13409;DHT22;6775;49.574;11.170;2023-01-30T10:03:27;1.50;99.90
13409;DHT22;6775;49.574;11.170;2023-01-30T10:05:59;1.60;99.90
13409;DHT22;6775;49.574;11.170;2023-01-30T10:08:42;1.60;99.90
13409;DHT22;6775;49.574;11.170;2023-01-30T10:11:23;1.60;99.90
13409;DHT22;6775;49.574;11.170;2023-01-30T10:14:16;1.60;99.90
13409;DHT22;6775;49.574;11.170;2023-01-30T10:16:53;1.60;99.90
13409;DHT22;6775;49.574;11.170;2023-01-30T10:19:43;1.70;99.90
13409;DHT22;6775;49.574;11.170;2023-01-30T10:22:21;1.70;99.90
13409;DHT22;6775;49.574;11.170;2023-01-30T10:25:03;1.70;99.90
13409;DHT22;6775;49.574;11.170;2023-01-30T10:27:34;1.70;99.90
13409;DHT22;6775;49.574;11.170;2023-01-30T10:30:05;1.80;99.90
13409;DHT22;6775;49.574;11.170;2023-01-30T10:32:38;1.70;99.90
13409;DHT22;6775;49.574;11.170;2023-01-30T10:35:14;1.80;99.90
13409;DHT22;6775;49.574;11.170;2023-01-30T10:37:47;1.80;99.90
13409;DHT22;6775;49.574;11.170;2023-01-30T10:40:22;1.80;99.90
13409;DHT22;6775;49.574;11.170;2023-01-30T10:42:56;1.80;99.90
13409;DHT22;6775;49.574;11.170;2023-01-30T10:45:31;1.80;99.90
13409;DHT22;6775;49.574;11.170;2023-01-30T10:48:17;1.80;99.90
13409;DHT22;6775;49.574;11.170;2023-01-30T10:51:17;1.90;99.90
13409;DHT22;6775;49.574;11.170;2023-01-30T10:53:52;1.90;99.90
13409;DHT22;6775;49.574;11.170;2023-01-30T10:56:29;2.00;99.90
13409;DHT22;6775;49.574;11.170;2023-01-30T10:59:08;2.00;99.90
13409;DHT22;6775;49.574;11.170;2023-01-30T11:01:43;2.00;99.90
13409;DHT22;6775;49.574;11.170;2023-01-30T11:04:18;2.00;99.90
13409;DHT22;6775;49.574;11.170;2023-01-30T11:06:50;2.00;99.90
13409;DHT22;6775;49.574;11.170;2023-01-30T11:09:18;2.00;99.90
13409;DHT22;6775;49.574;11.170;2023-01-30T11:11:51;2.00;99.90
13409;DHT22;6775;49.574;11.170;2023-01-30T11:14:19;2.10;99.90
13409;DHT22;6775;49.574;11.170;2023-01-30T11:16:50;2.10;99.90
13409;DHT22;6775;49.574;11.170;2023-01-30T11:19:22;2.10;99.90
13409;DHT22;6775;49.574;11.170;2023-01-30T11:21:52;2.10;99.90
13409;DHT22;6775;49.574;11.170;2023-01-30T11:24:22;2.10;99.90
13409;DHT22;6775;49.574;11.170;2023-01-30T11:26:52;2.10;99.90
13409;DHT22;6775;49.574;11.170;2023-01-30T11:29:27;2.10;99.90
13409;DHT22;6775;49.574;11.170;2023-01-30T11:31:57;2.20;99.90
13409;DHT22;6775;49.574;11.170;2023-01-30T11:34:28;2.20;99.90
13409;DHT22;6775;49.574;11.170;2023-01-30T11:37:11;2.20;99.90
13409;DHT22;6775;49.574;11.170;2023-01-30T11:39:47;2.20;99.90
13409;DHT22;6775;49.574;11.170;2023-01-30T11:42:21;2.20;99.90
13409;DHT22;6775;49.574;11.170;2023-01-30T11:44:54;2.20;99.90
13409;DHT22;6775;49.574;11.170;2023-01-30T11:47:47;2.20;99.90
13409;DHT22;6775;49.574;11.170;2023-01-30T11:50:32;2.20;99.90
13409;DHT22;6775;49.574;11.170;2023-01-30T11:53:16;2.20;99.90
13409;DHT22;6775;49.574;11.170;2023-01-30T11:55:45;2.30;99.90
13409;DHT22;6775;49.574;11.170;2023-01-30T11:58:32;2.30;99.90
13409;DHT22;6775;49.574;11.170;2023-01-30T12:01:01;2.30;99.90
13409;DHT22;6775;49.574;11.170;2023-01-30T12:03:31;2.30;99.90
13409;DHT22;6775;49.574;11.170;2023-01-30T12:06:00;2.30;99.90
13409;DHT22;6775;49.574;11.170;2023-01-30T12:08:32;2.20;99.90
13409;DHT22;6775;49.574;11.170;2023-01-30T12:11:40;2.20;99.90
13409;DHT22;6775;49.574;11.170;2023-01-30T12:14:31;2.30;99.90
13409;DHT22;6775;49.574;11.170;2023-01-30T12:17:07;2.30;99.90
13409;DHT22;6775;49.574;11.170;2023-01-30T12:19:54;2.30;99.90
13409;DHT22;6775;49.574;11.170;2023-01-30T12:22:27;2.30;99.90
13409;DHT22;6775;49.574;11.170;2023-01-30T12:25:00;2.30;99.90
13409;DHT22;6775;49.574;11.170;2023-01-30T12:27:37;2.30;99.90
13409;DHT22;6775;49.574;11.170;2023-01-30T12:30:28;2.30;99.90
13409;DHT22;6775;49.574;11.170;2023-01-30T12:33:00;2.30;99.90
13409;DHT22;6775;49.574;11.170;2023-01-30T12:35:43;2.40;99.90
13409;DHT22;6775;49.574;11.170;2023-01-30T12:38:20;2.40;99.90
13409;DHT22;6775;49.574;11.170;2023-01-30T12:41:01;2.40;99.90
13409;DHT22;6775;49.574;11.170;2023-01-30T12:43:56;2.40;99.90
13409;DHT22;6775;49.574;11.170;2023-01-30T12:46:44;2.50;99.90
13409;DHT22;6775;49.574;11.170;2023-01-30T12:49:34;2.40;99.90
13409;DHT22;6775;49.574;11.170;2023-01-30T12:52:22;2.50;99.90
13409;DHT22;6775;49.574;11.170;2023-01-30T12:54:59;2.50;99.90
13409;DHT22;6775;49.574;11.170;2023-01-30T12:57:34;2.50;99.90
13409;DHT22;6775;49.574;11.170;2023-01-30T13:00:21;2.50;99.90
13409;DHT22;6775;49.574;11.170;2023-01-30T13:03:05;2.50;99.90
13409;DHT22;6775;49.574;11.170;2023-01-30T13:05:42;2.50;99.90
13409;DHT22;6775;49.574;11.170;2023-01-30T13:08:24;2.60;99.90
13409;DHT22;6775;49.574;11.170;2023-01-30T13:11:04;2.60;99.90
13409;DHT22;6775;49.574;11.170;2023-01-30T13:13:37;2.60;99.90
13409;DHT22;6775;49.574;11.170;2023-01-30T13:16:13;2.60;99.90
13409;DHT22;6775;49.574;11.170;2023-01-30T13:18:49;2.70;99.90
13409;DHT22;6775;49.574;11.170;2023-01-30T13:21:21;2.70;99.90
13409;DHT22;6775;49.574;11.170;2023-01-30T13:24:01;2.70;99.90
13409;DHT22;6775;49.574;11.170;2023-01-30T13:26:32;2.70;99.90
13409;DHT22;6775;49.574;11.170;2023-01-30T13:29:03;2.70;99.90
13409;DHT22;6775;49.574;11.170;2023-01-30T13:31:35;2.80;99.90
13409;DHT22;6775;49.574;11.170;2023-01-30T13:34:11;2.90;99.90
13409;DHT22;6775;49.574;11.170;2023-01-30T13:36:44;2.90;99.90
13409;DHT22;6775;49.574;11.170;2023-01-30T13:39:16;2.90;99.90
13409;DHT22;6775;49.574;11.170;2023-01-30T13:41:52;2.90;99.90
13409;DHT22;6775;49.574;11.170;2023-01-30T13:44:23;2.90;99.90
13409;DHT22;6775;49.574;11.170;2023-01-30T13:46:53;2.90;99.90
13409;DHT22;6775;49.574;11.170;2023-01-30T13:49:29;2.90;99.90
13409;DHT22;6775;49.574;11.170;2023-01-30T13:52:08;2.90;99.90
13409;DHT22;6775;49.574;11.170;2023-01-30T13:54:48;3.00;99.90
13409;DHT22;6775;49.574;11.170;2023-01-30T13:57:27;3.00;99.90
13409;DHT22;6775;49.574;11.170;2023-01-30T14:00:26;3.00;99.90
13409;DHT22;6775;49.574;11.170;2023-01-30T14:03:14;3.10;99.90
13409;DHT22;6775;49.574;11.170;2023-01-30T14:06:02;3.20;99.90
13409;DHT22;6775;49.574;11.170;2023-01-30T14:08:37;3.20;99.90
13409;DHT22;6775;49.574;11.170;2023-01-30T14:11:28;3.20;99.90
13409;DHT22;6775;49.574;11.170;2023-01-30T14:14:02;3.20;99.90
13409;DHT22;6775;49.574;11.170;2023-01-30T14:16:42;3.20;99.90
13409;DHT22;6775;49.574;11.170;2023-01-30T14:19:35;3.30;99.90
13409;DHT22;6775;49.574;11.170;2023-01-30T14:22:37;3.40;99.90
13409;DHT22;6775;49.574;11.170;2023-01-30T14:28:41;3.50;99.90
13409;DHT22;6775;49.574;11.170;2023-01-30T14:31:09;3.50;99.90
13409;DHT22;6775;49.574;11.170;2023-01-30T14:33:48;3.60;99.90
13409;DHT22;6775;49.574;11.170;2023-01-30T14:36:35;3.60;99.90
13409;DHT22;6775;49.574;11.170;2023-01-30T14:39:39;3.60;99.90
13409;DHT22;6775;49.574;11.170;2023-01-30T14:42:16;3.50;99.90
13409;DHT22;6775;49.574;11.170;2023-01-30T14:45:02;3.50;99.90
13409;DHT22;6775;49.574;11.170;2023-01-30T14:47:33;3.40;99.90
13409;DHT22;6775;49.574;11.170;2023-01-30T14:50:18;3.40;99.90
13409;DHT22;6775;49.574;11.170;2023-01-30T14:52:47;3.40;99.90
13409;DHT22;6775;49.574;11.170;2023-01-30T14:55:20;3.30;99.90
13409;DHT22;6775;49.574;11.170;2023-01-30T14:57:53;3.30;99.90
13409;DHT22;6775;49.574;11.170;2023-01-30T15:00:25;3.30;99.90
13409;DHT22;6775;49.574;11.170;2023-01-30T15:02:56;3.20;99.90
13409;DHT22;6775;49.574;11.170;2023-01-30T15:05:31;3.20;99.90
13409;DHT22;6775;49.574;11.170;2023-01-30T15:08:06;3.20;99.90
13409;DHT22;6775;49.574;11.170;2023-01-30T15:10:50;3.10;99.90
13409;DHT22;6775;49.574;11.170;2023-01-30T15:13:52;3.10;99.90
13409;DHT22;6775;49.574;11.170;2023-01-30T15:16:48;3.10;99.90
13409;DHT22;6775;49.574;11.170;2023-01-30T15:19:48;3.10;99.90
13409;DHT22;6775;49.574;11.170;2023-01-30T15:22:23;3.10;99.90
13409;DHT22;6775;49.574;11.170;2023-01-30T15:28:14;3.10;99.90
13409;DHT22;6775;49.574;11.170;2023-01-30T15:31:04;3.10;99.90
13409;DHT22;6775;49.574;11.170;2023-01-30T15:33:42;3.10;99.90
13409;DHT22;6775;49.574;11.170;2023-01-30T15:36:19;3.10;99.90
13409;DHT22;6775;49.574;11.170;2023-01-30T15:38:55;3.10;99.90
13409;DHT22;6775;49.574;11.170;2023-01-30T15:41:24;3.10;99.90
13409;DHT22;6775;49.574;11.170;2023-01-30T15:44:02;3.10;99.90
13409;DHT22;6775;49.574;11.170;2023-01-30T15:46:43;3.10;99.90
13409;DHT22;6775;49.574;11.170;2023-01-30T15:49:30;3.10;99.90
13409;DHT22;6775;49.574;11.170;2023-01-30T15:52:02;3.10;99.90
13409;DHT22;6775;49.574;11.170;2023-01-30T15:54:32;3.10;99.90
13409;DHT22;6775;49.574;11.170;2023-01-30T15:57:00;3.10;99.90
13409;DHT22;6775;49.574;11.170;2023-01-30T15:59:31;3.00;99.90
13409;DHT22;6775;49.574;11.170;2023-01-30T16:02:03;3.10;99.90
13409;DHT22;6775;49.574;11.170;2023-01-30T16:04:31;3.10;99.90
13409;DHT22;6775;49.574;11.170;2023-01-30T16:07:00;3.00;99.90
13409;DHT22;6775;49.574;11.170;2023-01-30T16:09:40;3.00;99.90
13409;DHT22;6775;49.574;11.170;2023-01-30T16:12:32;3.10;99.90
13409;DHT22;6775;49.574;11.170;2023-01-30T16:15:04;3.00;99.90
13409;DHT22;6775;49.574;11.170;2023-01-30T16:17:53;3.00;99.90
13409;DHT22;6775;49.574;11.170;2023-01-30T16:20:22;3.00;99.90
13409;DHT22;6775;49.574;11.170;2023-01-30T16:22:49;3.00;99.90
13409;DHT22;6775;49.574;11.170;2023-01-30T16:25:21;3.00;99.90
13409;DHT22;6775;49.574;11.170;2023-01-30T16:27:49;3.00;99.90
13409;DHT22;6775;49.574;11.170;2023-01-30T16:30:23;3.00;99.90